Terminal Aerodrome Forecast
Issued by NWS Omaha/Valley, NE

Home | Current Version | Previous Version | Graphics & Text | Print | Product List | Glossary On
Versions: 1 2 3 4 5 6 7 8 9 10 11 12 13 14 15 16 17 18 19 20 21 22 23 24 25 26 27 28 29 30 31 32 33
000
FTUS43 KOAX 222320
TAFOFK
TAF
KOFK 222320Z 2300/2324 18011KT P6SM BKN180
      TEMPO 2303/2306 BKN015
     FM230600 21007KT 5SM BR OVC015
     FM231100 33008KT 4SM BR SCT020 OVC035
     FM231500 33015G25KT P6SM SCT015 OVC035 PROB30 2315/2319 5SM
      -SHRA BKN015=

USA.gov is the U.S. government's official web portal to all federal, state and local government web resources and services.